Create Custom Reports and Graphics: Custom Report

Robertsbridge Vineyards

Current Conditions

4/19/21 7:00 PM (-07:00)
Updated Every 15 Minutes
Temp 69.2 °F   6.0
RH 27 %   12
Dew Pt 34.3 °F   9.9
Wet Bulb 50.9 °F   0.8
Daily Min Temp 40.5 °F   3.9
Daily Max Temp 82.4 °F   4.2
Yesterday’s Min Temp 36.6 °F
Yesterday's Max Temp 86.6 °F
BatVolt 13.2 V   0.0

Last 30 Days

Robertsbridge Vineyards

Daily Data | America/Los_Angeles
as of 4/19/21 7:07 PM PDT
Date Daily Max Temp (°F) Time of Max Temp Daily Min Temp (°F) Time of Min Temp Dew Pt (°F) Max RH (%) Min RH (%) Hrs <= 32F (hrs) Hrs <= 28F (hrs) Hrs 70-85F (hrs) Hrs > 95F (hrs) Powdery Mildew Stress (pts) GDDs (DL) GDDs (Mx/Mn) Chilling <=45F (hrs) Bat Volt Min Day (V)
4/18/21 86.6 1611 36.6 0615 27.9 73 7 0.0 0.0 9.70 0.00 70 14.0 11.6 6.5 12.6
4/17/21 81.9 1626 38.3 0618 27.1 81 8 0.0 0.0 10.06 0.00 50 12.7 10.1 7.2 12.6
4/16/21 78.5 1412 35.7 0545 32.1 84 14 0.0 0.0 7.42 0.00 30 10.1 7.1 8.6 12.6
4/15/21 72.6 1357 31.4 0628 30.0 87 16 0.9 0.0 0.48 0.00 10 7.6 2.0 10.2 12.6
4/14/21 69.9 1536 34.3 0606 27.3 71 16 0.0 0.0 0.00 0.00 20 6.5 2.1 10.2 12.6
4/13/21 73.4 1613 33.4 0637 27.4 80 15 0.0 0.0 3.34 0.00 30 7.6 3.4 10.2 12.6
4/12/21 80.0 1445 37.3 0629 30.8 80 11 0.0 0.0 8.87 0.00 40 11.7 8.6 8.2 12.7
4/11/21 80.7 1626 34.3 0650 36.5 94 14 0.0 0.0 7.46 0.00 20 10.9 7.5 7.2 12.6
4/10/21 77.1 1646 31.6 0554 34.4 96 12 0.8 0.0 4.89 0.00 0 8.6 4.3 9.6 12.6
4/9/21 73.0 1515 32.8 0638 36.3 91 26 0.0 0.0 3.17 0.00 0 6.7 2.9 10.9 12.6
4/8/21 72.9 1433 29.3 0636 31.0 96 10 3.9 0.0 3.88 0.00 0 7.5 1.1 10.5 12.6
4/7/21 68.8 1355 30.9 0635 31.8 94 8 1.2 0.0 0.00 0.00 10 5.8 0.0 10.8 12.6
4/6/21 74.5 1526 36.4 0721 40.6 97 21 0.0 0.0 4.68 0.00 20 8.1 5.5 9.9 12.6
4/5/21 70.8 1712 36.1 0236 40.8 96 32 0.0 0.0 0.18 0.00 30 6.0 3.4 10.2 12.7
4/4/21 69.4 1542 37.8 0101 41.5 95 39 0.0 0.0 0.00 0.00 40 4.7 3.6 9.8 12.7
4/3/21 67.2 1605 29.8 0605 32.9 94 33 2.8 0.0 0.00 0.00 50 4.4 0.0 11.2 12.6
4/2/21 76.5 1520 32.2 0621 24.6 76 8 0.0 0.0 6.72 0.00 60 9.4 4.3 10.5 12.6
4/1/21 80.2 1519 35.1 0650 29.6 78 8 0.0 0.0 7.54 0.00 0 10.4 7.7 9.9 12.6
3/31/21 79.6 1648 39.6 0711 23.5 71 11 0.0 0.0 7.56 0.00 0 11.4 9.6 2.4 12.7
3/30/21 76.3 1652 29.6 0715 15.2 74 6 1.8 0.0 5.07 0.00 0 8.9 3.0 7.3 12.7
3/29/21 71.8 1705 34.4 0045 28.2 88 14 0.0 0.0 0.66 0.00 0 6.6 3.1 10.9 12.6
3/28/21 77.3 1442 34.4 0654 32.5 81 14 0.0 0.0 5.84 0.00 0 8.9 5.8 10.5 12.7
3/27/21 79.4 1714 33.6 0706 32.5 86 14 0.0 0.0 6.98 0.00 0 9.4 6.5 10.1 12.7
3/26/21 71.7 1646 29.3 0618 25.8 94 10 3.6 0.0 0.94 0.00 0 6.2 0.5 11.4 12.6
3/25/21 62.0 1525 30.6 0700 34.8 96 32 1.3 0.0 0.00 0.00 0 2.5 0.0 12.6 12.6
3/24/21 68.9 1445 33.0 0720 26.2 74 10 0.0 0.0 0.00 0.00 0 5.5 0.9 7.1 12.6
3/23/21 62.4 1713 27.7 0648 20.9 98 14 4.6 0.1 0.00 0.00 0 4.2 0.0 7.9 12.6
3/22/21 60.9 1442 32.6 0306 35.7 96 39 0.0 0.0 0.00 0.00 0 2.3 0.0 12.1 12.6
3/21/21 63.6 1520 27.8 0637 31.2 98 19 7.0 0.2 0.00 0.00 0 3.3 0.0 12.5 12.6
3/20/21 58.0 1720 27.4 0719 31.2 98 28 6.8 0.8 0.00 0.00 0 1.1 0.0 13.4 12.6
Max 86.6 - 39.6 - 41.5 98 39 7.0 0.8 10.06 0.00 - 14.0 11.6 13.4 12.7
Avg - - - - 30.7 - - 1.2 0.0 3.51 0.00 - 7.4 3.8 9.7 -
Min 58.0 - 27.4 - 15.2 71 6 0.0 0.0 0.00 0.00 - 1.1 0.0 2.4 12.6
Total - - - - - - - 34.7 1.2 105.45 0.00 - 222.9 114.7 289.7 -